sensor_id;sensor_type;location;lat;lon;timestamp;pressure;altitude;pressure_sealevel;temperature;humidity
31337;BME280;22846;42.654;23.314;2023-12-14T00:00:43;93509.00;;;23.24;60.43
31337;BME280;22846;42.654;23.314;2023-12-14T00:03:10;93514.31;;;23.19;60.24
31337;BME280;22846;42.654;23.314;2023-12-14T00:05:36;93505.19;;;23.22;60.27
31337;BME280;22846;42.654;23.314;2023-12-14T00:08:01;93495.97;;;23.10;60.67
31337;BME280;22846;42.654;23.314;2023-12-14T00:10:26;93506.88;;;23.19;60.63
31337;BME280;22846;42.654;23.314;2023-12-14T00:12:52;93508.09;;;23.09;60.50
31337;BME280;22846;42.654;23.314;2023-12-14T00:15:19;93499.16;;;23.18;60.59
31337;BME280;22846;42.654;23.314;2023-12-14T00:17:45;93535.03;;;23.16;60.53
31337;BME280;22846;42.654;23.314;2023-12-14T00:20:10;93499.75;;;23.04;60.90
31337;BME280;22846;42.654;23.314;2023-12-14T00:22:36;93513.38;;;23.13;60.48
31337;BME280;22846;42.654;23.314;2023-12-14T00:25:04;93528.22;;;23.12;60.62
31337;BME280;22846;42.654;23.314;2023-12-14T00:27:30;93520.03;;;23.12;60.60
31337;BME280;22846;42.654;23.314;2023-12-14T00:29:57;93523.06;;;23.05;60.62
31337;BME280;22846;42.654;23.314;2023-12-14T00:32:22;93514.31;;;23.10;60.75
31337;BME280;22846;42.654;23.314;2023-12-14T00:34:48;93511.28;;;23.08;60.68
31337;BME280;22846;42.654;23.314;2023-12-14T00:37:14;93509.25;;;23.00;60.61
31337;BME280;22846;42.654;23.314;2023-12-14T00:39:40;93512.16;;;23.05;60.69
31337;BME280;22846;42.654;23.314;2023-12-14T00:42:05;93501.59;;;23.07;60.70
31337;BME280;22846;42.654;23.314;2023-12-14T00:44:31;93534.75;;;23.06;60.79
31337;BME280;22846;42.654;23.314;2023-12-14T00:46:56;93508.25;;;23.06;60.81
31337;BME280;22846;42.654;23.314;2023-12-14T00:49:23;93526.38;;;23.00;60.90
31337;BME280;22846;42.654;23.314;2023-12-14T00:51:49;93507.19;;;23.04;60.54
31337;BME280;22846;42.654;23.314;2023-12-14T00:54:14;93514.59;;;23.03;60.90
31337;BME280;22846;42.654;23.314;2023-12-14T00:56:40;93499.44;;;22.93;60.83
31337;BME280;22846;42.654;23.314;2023-12-14T00:59:05;93508.38;;;22.94;60.54
31337;BME280;22846;42.654;23.314;2023-12-14T01:01:30;93473.72;;;22.85;60.56
31337;BME280;22846;42.654;23.314;2023-12-14T01:03:56;93522.44;;;23.01;60.80
31337;BME280;22846;42.654;23.314;2023-12-14T01:06:22;93519.41;;;22.99;60.89
31337;BME280;22846;42.654;23.314;2023-12-14T01:08:47;93502.75;;;22.97;60.81
31337;BME280;22846;42.654;23.314;2023-12-14T01:11:13;93518.53;;;22.93;60.77
31337;BME280;22846;42.654;23.314;2023-12-14T01:13:38;93495.94;;;22.84;60.52
31337;BME280;22846;42.654;23.314;2023-12-14T01:16:04;93505.63;;;22.94;60.60
31337;BME280;22846;42.654;23.314;2023-12-14T01:18:30;93526.69;;;22.93;60.82
31337;BME280;22846;42.654;23.314;2023-12-14T01:20:55;93521.25;;;22.93;60.98
31337;BME280;22846;42.654;23.314;2023-12-14T01:23:20;93511.25;;;22.90;60.94
31337;BME280;22846;42.654;23.314;2023-12-14T01:25:46;93506.09;;;22.92;60.72
31337;BME280;22846;42.654;23.314;2023-12-14T01:28:11;93492.78;;;22.94;60.96
31337;BME280;22846;42.654;23.314;2023-12-14T01:30:39;93492.03;;;22.76;60.67
31337;BME280;22846;42.654;23.314;2023-12-14T01:33:04;93483.69;;;22.70;60.88
31337;BME280;22846;42.654;23.314;2023-12-14T01:35:30;93504.44;;;22.77;60.77
31337;BME280;22846;42.654;23.314;2023-12-14T01:37:56;93520.94;;;22.91;60.91
31337;BME280;22846;42.654;23.314;2023-12-14T01:40:22;93523.66;;;22.91;60.52
31337;BME280;22846;42.654;23.314;2023-12-14T01:42:48;93491.56;;;22.86;61.01
31337;BME280;22846;42.654;23.314;2023-12-14T01:45:14;93516.38;;;22.88;60.76
31337;BME280;22846;42.654;23.314;2023-12-14T01:47:42;93517.16;;;22.89;61.09
31337;BME280;22846;42.654;23.314;2023-12-14T01:50:08;93503.97;;;22.78;60.98
31337;BME280;22846;42.654;23.314;2023-12-14T01:52:33;93494.16;;;22.81;60.69
31337;BME280;22846;42.654;23.314;2023-12-14T01:54:59;93501.56;;;22.80;60.90
31337;BME280;22846;42.654;23.314;2023-12-14T01:57:24;93511.25;;;22.81;60.73
31337;BME280;22846;42.654;23.314;2023-12-14T01:59:50;93513.34;;;22.86;60.85
31337;BME280;22846;42.654;23.314;2023-12-14T02:02:16;93502.00;;;22.79;60.91
31337;BME280;22846;42.654;23.314;2023-12-14T02:04:41;93490.19;;;22.82;60.71
31337;BME280;22846;42.654;23.314;2023-12-14T02:07:07;93503.06;;;22.81;60.87
31337;BME280;22846;42.654;23.314;2023-12-14T02:09:32;93486.72;;;22.81;60.69
31337;BME280;22846;42.654;23.314;2023-12-14T02:11:58;93467.66;;;22.81;60.61
31337;BME280;22846;42.654;23.314;2023-12-14T02:14:23;93492.63;;;22.80;60.90
31337;BME280;22846;42.654;23.314;2023-12-14T02:16:49;93437.84;;;22.51;61.01
31337;BME280;22846;42.654;23.314;2023-12-14T02:19:14;93467.97;;;22.74;60.64
31337;BME280;22846;42.654;23.314;2023-12-14T02:21:40;93456.47;;;22.70;60.98
31337;BME280;22846;42.654;23.314;2023-12-14T02:24:05;93474.16;;;22.75;60.61
31337;BME280;22846;42.654;23.314;2023-12-14T02:26:31;93464.31;;;22.77;60.72
31337;BME280;22846;42.654;23.314;2023-12-14T02:28:58;93469.75;;;22.77;61.03
31337;BME280;22846;42.654;23.314;2023-12-14T02:31:23;93471.16;;;22.73;60.82
31337;BME280;22846;42.654;23.314;2023-12-14T02:33:49;93459.16;;;22.52;60.84
31337;BME280;22846;42.654;23.314;2023-12-14T02:36:14;93461.75;;;22.74;61.02
31337;BME280;22846;42.654;23.314;2023-12-14T02:38:40;93493.22;;;22.75;61.01
31337;BME280;22846;42.654;23.314;2023-12-14T02:41:05;93460.09;;;22.67;60.95
31337;BME280;22846;42.654;23.314;2023-12-14T02:43:31;93495.19;;;22.74;60.87
31337;BME280;22846;42.654;23.314;2023-12-14T02:45:56;93473.56;;;22.62;61.13
31337;BME280;22846;42.654;23.314;2023-12-14T02:48:27;93496.41;;;22.73;60.85
31337;BME280;22846;42.654;23.314;2023-12-14T02:50:53;93497.63;;;22.72;60.69
31337;BME280;22846;42.654;23.314;2023-12-14T02:53:18;93487.50;;;22.73;60.86
31337;BME280;22846;42.654;23.314;2023-12-14T02:55:44;93487.94;;;22.71;61.10
31337;BME280;22846;42.654;23.314;2023-12-14T02:58:09;93491.84;;;22.70;60.71
31337;BME280;22846;42.654;23.314;2023-12-14T03:00:35;93473.88;;;22.64;61.00
31337;BME280;22846;42.654;23.314;2023-12-14T03:03:00;93516.38;;;22.70;60.95
31337;BME280;22846;42.654;23.314;2023-12-14T03:05:26;93512.91;;;22.70;61.03
31337;BME280;22846;42.654;23.314;2023-12-14T03:07:52;93469.00;;;22.41;60.71
31337;BME280;22846;42.654;23.314;2023-12-14T03:10:17;93492.31;;;22.69;60.93
31337;BME280;22846;42.654;23.314;2023-12-14T03:12:43;93464.34;;;22.59;60.90
31337;BME280;22846;42.654;23.314;2023-12-14T03:15:08;93472.34;;;22.63;61.07
31337;BME280;22846;42.654;23.314;2023-12-14T03:17:34;93467.66;;;22.63;60.88
31337;BME280;22846;42.654;23.314;2023-12-14T03:19:59;93433.47;;;22.53;60.78
31337;BME280;22846;42.654;23.314;2023-12-14T03:22:25;93453.28;;;22.54;61.04
31337;BME280;22846;42.654;23.314;2023-12-14T03:24:50;93469.47;;;22.66;60.82
31337;BME280;22846;42.654;23.314;2023-12-14T03:27:16;93454.34;;;22.65;60.91
31337;BME280;22846;42.654;23.314;2023-12-14T03:29:41;93460.69;;;22.62;61.08
31337;BME280;22846;42.654;23.314;2023-12-14T03:32:07;93447.38;;;22.55;61.11
31337;BME280;22846;42.654;23.314;2023-12-14T03:34:32;93458.13;;;22.59;60.75
31337;BME280;22846;42.654;23.314;2023-12-14T03:36:58;93460.38;;;22.60;60.91
31337;BME280;22846;42.654;23.314;2023-12-14T03:39:23;93444.06;;;22.60;60.97
31337;BME280;22846;42.654;23.314;2023-12-14T03:41:49;93448.00;;;22.59;60.96
31337;BME280;22846;42.654;23.314;2023-12-14T03:44:14;93402.31;;;22.54;60.86
31337;BME280;22846;42.654;23.314;2023-12-14T03:46:40;93437.56;;;22.58;61.14
31337;BME280;22846;42.654;23.314;2023-12-14T03:49:05;93419.53;;;22.51;61.05
31337;BME280;22846;42.654;23.314;2023-12-14T03:51:31;93426.81;;;22.54;61.15
31337;BME280;22846;42.654;23.314;2023-12-14T03:53:56;93429.84;;;22.56;60.90
31337;BME280;22846;42.654;23.314;2023-12-14T03:56:22;93423.78;;;22.61;60.82
31337;BME280;22846;42.654;23.314;2023-12-14T03:58:47;93420.31;;;22.61;61.05
31337;BME280;22846;42.654;23.314;2023-12-14T04:01:19;93434.41;;;22.59;60.89
31337;BME280;22846;42.654;23.314;2023-12-14T04:03:46;93428.94;;;22.59;61.15
31337;BME280;22846;42.654;23.314;2023-12-14T04:06:12;93435.44;;;22.53;60.93
31337;BME280;22846;42.654;23.314;2023-12-14T04:08:38;93444.19;;;22.57;60.75
31337;BME280;22846;42.654;23.314;2023-12-14T04:11:04;93402.91;;;22.31;60.92
31337;BME280;22846;42.654;23.314;2023-12-14T04:13:31;93425.00;;;22.33;61.31
31337;BME280;22846;42.654;23.314;2023-12-14T04:15:57;93433.25;;;22.30;60.72
31337;BME280;22846;42.654;23.314;2023-12-14T04:18:24;93431.03;;;22.37;61.02
31337;BME280;22846;42.654;23.314;2023-12-14T04:20:49;93425.59;;;22.37;60.93
31337;BME280;22846;42.654;23.314;2023-12-14T04:23:15;93452.50;;;22.44;61.09
31337;BME280;22846;42.654;23.314;2023-12-14T04:25:40;93459.78;;;22.56;60.86
31337;BME280;22846;42.654;23.314;2023-12-14T04:28:06;93459.94;;;22.53;60.70
31337;BME280;22846;42.654;23.314;2023-12-14T04:30:32;93438.00;;;22.38;60.79
31337;BME280;22846;42.654;23.314;2023-12-14T04:32:58;93439.22;;;22.46;60.97
31337;BME280;22846;42.654;23.314;2023-12-14T04:35:23;93449.78;;;22.44;60.77
31337;BME280;22846;42.654;23.314;2023-12-14T04:37:49;93431.34;;;22.48;60.77
31337;BME280;22846;42.654;23.314;2023-12-14T04:40:15;93449.03;;;22.35;61.10
31337;BME280;22846;42.654;23.314;2023-12-14T04:42:40;93459.16;;;22.52;60.94
31337;BME280;22846;42.654;23.314;2023-12-14T04:45:06;93478.69;;;22.51;60.92
31337;BME280;22846;42.654;23.314;2023-12-14T04:47:31;93419.53;;;22.51;59.71
31337;BME280;22846;42.654;23.314;2023-12-14T04:49:57;93454.19;;;22.78;59.33
31337;BME280;22846;42.654;23.314;2023-12-14T04:52:22;93454.66;;;22.94;59.44
31337;BME280;22846;42.654;23.314;2023-12-14T04:54:48;93437.53;;;23.03;60.46
31337;BME280;22846;42.654;23.314;2023-12-14T04:57:13;93448.75;;;23.05;60.07
31337;BME280;22846;42.654;23.314;2023-12-14T04:59:41;93458.44;;;22.97;59.55
31337;BME280;22846;42.654;23.314;2023-12-14T05:02:07;93451.47;;;22.96;58.40
31337;BME280;22846;42.654;23.314;2023-12-14T05:04:33;93447.78;;;23.25;57.87
31337;BME280;22846;42.654;23.314;2023-12-14T05:06:58;93473.38;;;23.37;58.04
31337;BME280;22846;42.654;23.314;2023-12-14T05:09:23;93458.19;;;23.54;57.81
31337;BME280;22846;42.654;23.314;2023-12-14T05:11:49;93461.47;;;23.67;57.63
31337;BME280;22846;42.654;23.314;2023-12-14T05:14:14;93441.00;;;23.80;57.08
31337;BME280;22846;42.654;23.314;2023-12-14T05:16:40;93456.28;;;23.87;56.79
31337;BME280;22846;42.654;23.314;2023-12-14T05:19:07;93440.91;;;23.98;56.93
31337;BME280;22846;42.654;23.314;2023-12-14T05:21:32;93454.97;;;24.05;56.58
31337;BME280;22846;42.654;23.314;2023-12-14T05:23:58;93443.06;;;24.17;56.42
31337;BME280;22846;42.654;23.314;2023-12-14T05:26:24;93461.38;;;24.26;56.16
31337;BME280;22846;42.654;23.314;2023-12-14T05:28:49;93441.91;;;24.33;55.93
31337;BME280;22846;42.654;23.314;2023-12-14T05:31:14;93464.19;;;24.40;55.91
31337;BME280;22846;42.654;23.314;2023-12-14T05:33:40;93445.97;;;24.46;56.15
31337;BME280;22846;42.654;23.314;2023-12-14T05:36:06;93480.81;;;24.51;54.57
31337;BME280;22846;42.654;23.314;2023-12-14T05:38:38;93462.28;;;24.55;54.20
31337;BME280;22846;42.654;23.314;2023-12-14T05:41:04;93474.25;;;24.58;54.01
31337;BME280;22846;42.654;23.314;2023-12-14T05:43:29;93467.38;;;24.62;54.47
31337;BME280;22846;42.654;23.314;2023-12-14T05:45:55;93462.41;;;24.61;54.19
31337;BME280;22846;42.654;23.314;2023-12-14T05:48:20;93495.81;;;24.56;54.35
31337;BME280;22846;42.654;23.314;2023-12-14T05:50:46;93484.50;;;24.48;54.41
31337;BME280;22846;42.654;23.314;2023-12-14T05:53:11;93483.28;;;24.40;54.22
31337;BME280;22846;42.654;23.314;2023-12-14T05:55:39;93486.34;;;24.33;54.77
31337;BME280;22846;42.654;23.314;2023-12-14T05:58:06;93478.50;;;24.26;54.73
31337;BME280;22846;42.654;23.314;2023-12-14T06:00:33;93497.97;;;24.19;55.76
31337;BME280;22846;42.654;23.314;2023-12-14T06:03:00;93471.31;;;24.14;56.40
31337;BME280;22846;42.654;23.314;2023-12-14T06:05:25;93466.47;;;24.09;56.70
31337;BME280;22846;42.654;23.314;2023-12-14T06:07:51;93508.03;;;24.04;56.86
31337;BME280;22846;42.654;23.314;2023-12-14T06:10:16;93478.25;;;23.92;56.37
31337;BME280;22846;42.654;23.314;2023-12-14T06:12:42;93486.28;;;23.87;56.70
31337;BME280;22846;42.654;23.314;2023-12-14T06:15:08;93479.88;;;23.90;56.26
31337;BME280;22846;42.654;23.314;2023-12-14T06:17:37;93494.34;;;23.81;56.89
31337;BME280;22846;42.654;23.314;2023-12-14T06:20:05;93487.19;;;23.84;57.07
31337;BME280;22846;42.654;23.314;2023-12-14T06:22:35;93498.75;;;23.79;57.17
31337;BME280;22846;42.654;23.314;2023-12-14T06:25:01;93510.41;;;23.70;56.82
31337;BME280;22846;42.654;23.314;2023-12-14T06:27:28;93496.94;;;23.67;56.68
31337;BME280;22846;42.654;23.314;2023-12-14T06:29:54;93526.59;;;23.74;56.64
31337;BME280;22846;42.654;23.314;2023-12-14T06:32:20;93516.63;;;23.71;57.02
31337;BME280;22846;42.654;23.314;2023-12-14T06:34:45;93490.91;;;23.54;56.51
31337;BME280;22846;42.654;23.314;2023-12-14T06:37:11;93497.91;;;23.46;56.20
31337;BME280;22846;42.654;23.314;2023-12-14T06:39:36;93503.00;;;23.62;57.22
31337;BME280;22846;42.654;23.314;2023-12-14T06:42:02;93513.78;;;23.47;56.88
31337;BME280;22846;42.654;23.314;2023-12-14T06:44:28;93513.50;;;23.45;57.29
31337;BME280;22846;42.654;23.314;2023-12-14T06:46:55;93516.19;;;23.54;57.12
31337;BME280;22846;42.654;23.314;2023-12-14T06:49:23;93515.16;;;23.43;57.12
31337;BME280;22846;42.654;23.314;2023-12-14T06:51:49;93551.50;;;23.49;57.02
31337;BME280;22846;42.654;23.314;2023-12-14T06:54:14;93534.72;;;23.50;57.17
31337;BME280;22846;42.654;23.314;2023-12-14T06:56:40;93532.13;;;23.47;57.52
31337;BME280;22846;42.654;23.314;2023-12-14T06:59:05;93535.47;;;23.42;57.12
31337;BME280;22846;42.654;23.314;2023-12-14T07:01:31;93541.97;;;23.44;57.63
31337;BME280;22846;42.654;23.314;2023-12-14T07:03:56;93546.84;;;23.40;57.48
31337;BME280;22846;42.654;23.314;2023-12-14T07:06:22;93526.53;;;23.41;57.35
31337;BME280;22846;42.654;23.314;2023-12-14T07:08:47;93518.38;;;23.32;57.73
31337;BME280;22846;42.654;23.314;2023-12-14T07:11:13;93542.44;;;23.34;57.26
31337;BME280;22846;42.654;23.314;2023-12-14T07:13:38;93549.72;;;23.37;57.52
31337;BME280;22846;42.654;23.314;2023-12-14T07:16:08;93559.84;;;23.36;57.88
31337;BME280;22846;42.654;23.314;2023-12-14T07:18:35;93539.25;;;23.35;57.88
31337;BME280;22846;42.654;23.314;2023-12-14T07:21:04;93547.59;;;23.32;57.79
31337;BME280;22846;42.654;23.314;2023-12-14T07:23:30;93543.06;;;23.20;57.61
31337;BME280;22846;42.654;23.314;2023-12-14T07:25:55;93563.19;;;23.31;57.82
31337;BME280;22846;42.654;23.314;2023-12-14T07:28:22;93564.41;;;23.30;57.96
31337;BME280;22846;42.654;23.314;2023-12-14T07:30:47;93570.31;;;23.29;57.82
31337;BME280;22846;42.654;23.314;2023-12-14T07:33:14;93561.53;;;23.25;58.12
31337;BME280;22846;42.654;23.314;2023-12-14T07:35:39;93543.97;;;23.17;58.08
31337;BME280;22846;42.654;23.314;2023-12-14T07:38:05;93570.00;;;23.27;57.98
31337;BME280;22846;42.654;23.314;2023-12-14T07:40:30;93555.34;;;23.15;57.79
31337;BME280;22846;42.654;23.314;2023-12-14T07:42:56;93562.44;;;23.22;57.58
31337;BME280;22846;42.654;23.314;2023-12-14T07:45:21;93570.16;;;23.23;57.65
31337;BME280;22846;42.654;23.314;2023-12-14T07:47:47;93571.38;;;23.22;57.81
31337;BME280;22846;42.654;23.314;2023-12-14T07:50:12;93570.91;;;23.15;58.13
31337;BME280;22846;42.654;23.314;2023-12-14T07:52:38;93560.16;;;23.11;57.96
31337;BME280;22846;42.654;23.314;2023-12-14T07:55:05;93570.00;;;23.18;58.02
31337;BME280;22846;42.654;23.314;2023-12-14T07:57:30;93567.28;;;23.18;57.70
31337;BME280;22846;42.654;23.314;2023-12-14T07:59:56;93582.44;;;23.19;57.64
31337;BME280;22846;42.654;23.314;2023-12-14T08:02:22;93596.06;;;23.19;57.68
31337;BME280;22846;42.654;23.314;2023-12-14T08:04:47;93572.75;;;23.09;58.07
31337;BME280;22846;42.654;23.314;2023-12-14T08:07:14;93588.31;;;23.17;58.11
31337;BME280;22846;42.654;23.314;2023-12-14T08:09:39;93576.06;;;23.13;57.83
31337;BME280;22846;42.654;23.314;2023-12-14T08:12:05;93565.63;;;23.11;57.82
31337;BME280;22846;42.654;23.314;2023-12-14T08:14:34;93576.81;;;23.13;58.26
31337;BME280;22846;42.654;23.314;2023-12-14T08:17:01;93580.91;;;23.18;58.48
31337;BME280;22846;42.654;23.314;2023-12-14T08:19:27;93570.00;;;23.18;58.21
31337;BME280;22846;42.654;23.314;2023-12-14T08:21:52;93568.50;;;23.17;57.92
31337;BME280;22846;42.654;23.314;2023-12-14T08:24:18;93588.31;;;23.17;57.58
31337;BME280;22846;42.654;23.314;2023-12-14T08:26:43;93593.03;;;23.17;57.50
31337;BME280;22846;42.654;23.314;2023-12-14T08:29:09;93584.84;;;23.17;57.52
31337;BME280;22846;42.654;23.314;2023-12-14T08:31:34;93588.03;;;23.15;57.94
31337;BME280;22846;42.654;23.314;2023-12-14T08:34:00;93582.59;;;23.15;57.52
31337;BME280;22846;42.654;23.314;2023-12-14T08:36:26;93591.34;;;23.10;57.53
31337;BME280;22846;42.654;23.314;2023-12-14T08:38:51;93585.75;;;23.14;57.45
31337;BME280;22846;42.654;23.314;2023-12-14T08:41:16;93585.16;;;23.10;57.32
31337;BME280;22846;42.654;23.314;2023-12-14T08:43:42;93595.13;;;23.13;57.19
31337;BME280;22846;42.654;23.314;2023-12-14T08:46:07;93595.28;;;23.09;57.33
31337;BME280;22846;42.654;23.314;2023-12-14T08:48:33;93606.03;;;23.13;57.56
31337;BME280;22846;42.654;23.314;2023-12-14T08:50:58;93590.88;;;23.12;56.96
31337;BME280;22846;42.654;23.314;2023-12-14T08:53:24;93608.75;;;23.13;57.26
31337;BME280;22846;42.654;23.314;2023-12-14T08:55:49;93607.22;;;23.12;56.86
31337;BME280;22846;42.654;23.314;2023-12-14T08:58:15;93601.50;;;23.10;57.24
31337;BME280;22846;42.654;23.314;2023-12-14T09:00:40;93590.59;;;23.10;57.04
31337;BME280;22846;42.654;23.314;2023-12-14T09:03:05;93581.97;;;23.11;57.45
31337;BME280;22846;42.654;23.314;2023-12-14T09:05:31;93602.25;;;23.10;57.40
31337;BME280;22846;42.654;23.314;2023-12-14T09:07:56;93593.75;;;23.08;57.28
31337;BME280;22846;42.654;23.314;2023-12-14T09:10:24;93608.47;;;23.11;57.26
31337;BME280;22846;42.654;23.314;2023-12-14T09:12:49;93589.25;;;23.06;56.96
31337;BME280;22846;42.654;23.314;2023-12-14T09:15:15;93587.25;;;23.06;57.56
31337;BME280;22846;42.654;23.314;2023-12-14T09:17:41;93585.16;;;23.10;57.13
31337;BME280;22846;42.654;23.314;2023-12-14T09:20:08;93582.69;;;23.03;57.22
31337;BME280;22846;42.654;23.314;2023-12-14T09:22:33;93580.59;;;23.07;57.20
31337;BME280;22846;42.654;23.314;2023-12-14T09:24:59;93579.69;;;23.10;57.50
31337;BME280;22846;42.654;23.314;2023-12-14T09:27:24;93584.38;;;23.09;57.63
31337;BME280;22846;42.654;23.314;2023-12-14T09:29:50;93575.31;;;23.04;57.54
31337;BME280;22846;42.654;23.314;2023-12-14T09:32:15;93582.59;;;23.07;57.10
31337;BME280;22846;42.654;23.314;2023-12-14T09:34:42;93590.88;;;23.03;57.14
31337;BME280;22846;42.654;23.314;2023-12-14T09:37:08;93599.22;;;23.08;56.99
31337;BME280;22846;42.654;23.314;2023-12-14T09:39:33;93612.84;;;23.08;56.98
31337;BME280;22846;42.654;23.314;2023-12-14T09:42:06;93593.47;;;23.07;56.73
31337;BME280;22846;42.654;23.314;2023-12-14T09:44:32;93597.69;;;23.08;57.14
31337;BME280;22846;42.654;23.314;2023-12-14T09:47:01;93601.66;;;23.07;57.04
31337;BME280;22846;42.654;23.314;2023-12-14T09:49:30;93622.69;;;23.06;56.71
31337;BME280;22846;42.654;23.314;2023-12-14T09:51:56;93601.47;;;23.01;56.66
31337;BME280;22846;42.654;23.314;2023-12-14T09:54:22;93620.72;;;23.07;56.84
31337;BME280;22846;42.654;23.314;2023-12-14T09:56:48;93605.72;;;23.02;56.88
31337;BME280;22846;42.654;23.314;2023-12-14T09:59:15;93631.31;;;23.05;56.71
31337;BME280;22846;42.654;23.314;2023-12-14T10:01:41;93621.75;;;23.00;56.93
31337;BME280;22846;42.654;23.314;2023-12-14T10:04:11;93626.19;;;23.07;56.54
31337;BME280;22846;42.654;23.314;2023-12-14T10:06:38;93613.09;;;23.02;56.81
31337;BME280;22846;42.654;23.314;2023-12-14T10:09:03;93593.91;;;23.05;56.57
31337;BME280;22846;42.654;23.314;2023-12-14T10:11:30;93606.03;;;23.04;56.66
31337;BME280;22846;42.654;23.314;2023-12-14T10:13:55;93615.09;;;23.01;56.64
31337;BME280;22846;42.654;23.314;2023-12-14T10:16:29;93613.44;;;23.04;56.62
31337;BME280;22846;42.654;23.314;2023-12-14T10:18:56;93611.47;;;23.04;56.51
31337;BME280;22846;42.654;23.314;2023-12-14T10:21:22;93602.56;;;23.04;56.63
31337;BME280;22846;42.654;23.314;2023-12-14T10:23:48;93609.94;;;23.03;57.02
31337;BME280;22846;42.654;23.314;2023-12-14T10:26:14;93597.97;;;23.01;56.81
31337;BME280;22846;42.654;23.314;2023-12-14T10:28:40;93609.94;;;23.03;57.11
31337;BME280;22846;42.654;23.314;2023-12-14T10:31:05;93605.41;;;23.00;57.04
31337;BME280;22846;42.654;23.314;2023-12-14T10:33:31;93573.44;;;22.92;56.69
31337;BME280;22846;42.654;23.314;2023-12-14T10:35:56;93623.56;;;22.94;56.59
31337;BME280;22846;42.654;23.314;2023-12-14T10:38:24;93627.94;;;23.01;56.29
31337;BME280;22846;42.654;23.314;2023-12-14T10:40:51;93627.94;;;23.01;56.67
31337;BME280;22846;42.654;23.314;2023-12-14T10:43:18;93620.06;;;22.94;56.57
31337;BME280;22846;42.654;23.314;2023-12-14T10:45:46;93622.63;;;22.97;56.72
31337;BME280;22846;42.654;23.314;2023-12-14T10:48:13;93632.00;;;22.96;56.54
31337;BME280;22846;42.654;23.314;2023-12-14T10:50:42;93624.31;;;22.95;56.90
31337;BME280;22846;42.654;23.314;2023-12-14T10:53:08;93654.91;;;22.99;56.50
31337;BME280;22846;42.654;23.314;2023-12-14T10:55:38;93655.00;;;22.95;56.89
31337;BME280;22846;42.654;23.314;2023-12-14T10:58:05;93665.78;;;22.90;56.76
31337;BME280;22846;42.654;23.314;2023-12-14T11:00:33;93652.91;;;22.90;56.71
31337;BME280;22846;42.654;23.314;2023-12-14T11:02:59;93672.13;;;22.96;56.93
31337;BME280;22846;42.654;23.314;2023-12-14T11:05:27;93671.81;;;22.94;56.98
31337;BME280;22846;42.654;23.314;2023-12-14T11:08:00;93678.47;;;22.93;56.85
31337;BME280;22846;42.654;23.314;2023-12-14T11:10:37;93670.75;;;22.91;56.61
31337;BME280;22846;42.654;23.314;2023-12-14T11:13:06;93680.78;;;22.94;56.50
31337;BME280;22846;42.654;23.314;2023-12-14T11:15:35;93676.22;;;22.91;56.51
31337;BME280;22846;42.654;23.314;2023-12-14T11:23:10;93695.75;;;22.90;56.26
31337;BME280;22846;42.654;23.314;2023-12-14T11:25:39;93707.38;;;22.90;56.31
31337;BME280;22846;42.654;23.314;2023-12-14T11:28:06;93690.25;;;22.81;56.68
31337;BME280;22846;42.654;23.314;2023-12-14T11:30:33;93719.03;;;22.91;56.33
31337;BME280;22846;42.654;23.314;2023-12-14T11:33:00;93711.91;;;22.84;56.26
31337;BME280;22846;42.654;23.314;2023-12-14T11:35:25;93723.72;;;22.90;56.42
31337;BME280;22846;42.654;23.314;2023-12-14T11:37:51;93722.97;;;22.90;56.44
31337;BME280;22846;42.654;23.314;2023-12-14T11:40:17;93716.16;;;22.85;56.18
31337;BME280;22846;42.654;23.314;2023-12-14T11:43:08;93726.91;;;22.89;56.48
31337;BME280;22846;42.654;23.314;2023-12-14T11:45:38;93724.19;;;22.89;56.34
31337;BME280;22846;42.654;23.314;2023-12-14T11:48:10;93726.91;;;22.89;56.64
31337;BME280;22846;42.654;23.314;2023-12-14T11:50:38;93739.00;;;22.88;56.25
31337;BME280;22846;42.654;23.314;2023-12-14T11:53:04;93744.75;;;22.81;56.21
31337;BME280;22846;42.654;23.314;2023-12-14T11:55:31;93742.16;;;22.86;56.55
31337;BME280;22846;42.654;23.314;2023-12-14T11:57:57;93759.75;;;22.85;56.21
31337;BME280;22846;42.654;23.314;2023-12-14T12:00:26;93763.34;;;22.82;56.00
31337;BME280;22846;42.654;23.314;2023-12-14T12:02:53;93759.09;;;22.81;56.10
31337;BME280;22846;42.654;23.314;2023-12-14T12:05:39;93759.56;;;22.80;56.03
31337;BME280;22846;42.654;23.314;2023-12-14T12:08:06;93775.31;;;22.85;55.79
31337;BME280;22846;42.654;23.314;2023-12-14T12:10:32;93772.25;;;22.83;55.88
31337;BME280;22846;42.654;23.314;2023-12-14T12:13:02;93785.59;;;22.81;56.41
31337;BME280;22846;42.654;23.314;2023-12-14T12:15:30;93787.41;;;22.84;56.05
31337;BME280;22846;42.654;23.314;2023-12-14T12:17:57;93775.00;;;22.83;56.24
31337;BME280;22846;42.654;23.314;2023-12-14T12:20:22;93773.47;;;22.82;56.07
31337;BME280;22846;42.654;23.314;2023-12-14T12:22:48;93787.22;;;22.78;56.16
31337;BME280;22846;42.654;23.314;2023-12-14T12:25:14;93769.25;;;22.81;55.96
31337;BME280;22846;42.654;23.314;2023-12-14T12:27:40;93790.25;;;22.80;56.19
31337;BME280;22846;42.654;23.314;2023-12-14T12:30:06;93773.19;;;22.80;56.15
31337;BME280;22846;42.654;23.314;2023-12-14T12:32:32;93768.44;;;22.71;56.19
31337;BME280;22846;42.654;23.314;2023-12-14T12:34:57;93787.53;;;22.80;56.17
31337;BME280;22846;42.654;23.314;2023-12-14T12:37:23;93760.00;;;22.78;55.99
31337;BME280;22846;42.654;23.314;2023-12-14T12:39:49;93782.69;;;22.75;56.16
31337;BME280;22846;42.654;23.314;2023-12-14T12:42:14;93789.66;;;22.76;56.23
31337;BME280;22846;42.654;23.314;2023-12-14T12:44:40;93781.47;;;22.76;56.12
31337;BME280;22846;42.654;23.314;2023-12-14T12:47:06;93776.78;;;22.77;55.95
31337;BME280;22846;42.654;23.314;2023-12-14T12:49:31;93797.38;;;22.78;55.83